Alpine, Mississippi
Current Conditions -  °F | °C
As of 9:53 AM on Tuesday 21 Oct 2014 (Local Time) from KTUP Reporting Station
Clear Clear  
Wind Chill: 63°   Ceiling: Unl
Heat Index: 63°   Visibility: 10mi
Dew Point: 55°   Wind: 6mph
Humidity: 75%   Direction: 60°ENE
Pressure: 30.09"   Gusts: NA
Location:  34.4333°N, 88.8629°W
Report Text: KTUP 211453Z 06005KT 10SM CLR 17/13 A3009 RMK AO2 SLP187 T01720128 51012 $
Loading
Personal Weather Stations






























Interactive Weather Map
Tropical Storm Tracking
New forecast layout! Learn more

10-Day Weather Forecast

Advertisements
Track Severe Weather on mobile